createdAt,value
2017-11-28T00:01:50.611Z,5.00
2017-11-28T00:05:00.328Z,4.35
2017-11-28T00:08:11.373Z,4.80
2017-11-28T00:11:21.341Z,4.32
2017-11-28T00:14:31.194Z,4.68
2017-11-28T00:17:40.749Z,3.80
2017-11-28T00:20:51.360Z,4.68
2017-11-28T00:24:01.642Z,4.35
2017-11-28T00:27:11.131Z,4.55
2017-11-28T00:30:21.531Z,4.50
2017-11-28T00:33:32.329Z,4.53
2017-11-28T00:36:42.247Z,4.22
2017-11-28T00:39:52.860Z,4.35
2017-11-28T00:43:02.909Z,4.32
2017-11-28T00:46:12.598Z,4.15
2017-11-28T00:49:22.993Z,4.30
2017-11-28T00:52:33.838Z,4.30
2017-11-28T00:55:43.839Z,3.95
2017-11-28T00:58:53.678Z,5.15
2017-11-28T01:02:03.956Z,3.78
2017-11-28T01:05:14.328Z,4.62
2017-11-28T01:08:24.660Z,5.10
2017-11-28T01:11:34.581Z,4.45
2017-11-28T01:14:43.977Z,4.07
2017-11-28T01:17:53.855Z,4.40
2017-11-28T01:21:04.289Z,4.28
2017-11-28T01:24:14.289Z,4.65
2017-11-28T01:27:24.673Z,4.18
2017-11-28T01:30:35.159Z,4.72
2017-11-28T01:33:45.823Z,4.18
2017-11-28T01:36:56.631Z,4.90
2017-11-28T01:40:07.450Z,4.50
2017-11-28T01:43:17.392Z,4.30
2017-11-28T01:46:26.935Z,3.87
2017-11-28T01:49:36.612Z,4.28
2017-11-28T01:52:46.832Z,4.40
2017-11-28T01:55:56.285Z,4.30
2017-11-28T01:59:05.748Z,4.15
2017-11-28T02:02:15.713Z,4.30
2017-11-28T02:05:26.424Z,4.25
2017-11-28T02:08:36.756Z,4.30
2017-11-28T02:11:47.083Z,4.10
2017-11-28T02:14:56.883Z,4.45
2017-11-28T02:18:07.263Z,4.15
2017-11-28T02:21:17.232Z,4.55
2017-11-28T02:24:27.819Z,3.75
2017-11-28T02:27:37.660Z,4.15
2017-11-28T02:30:47.985Z,4.30
2017-11-28T02:33:58.865Z,4.05
2017-11-28T02:37:09.148Z,3.95
2017-11-28T02:40:20.538Z,4.18
2017-11-28T02:43:30.248Z,3.70
2017-11-28T02:46:41.041Z,4.30
2017-11-28T02:49:58.077Z,4.22
2017-11-28T02:53:08.060Z,3.60
2017-11-28T02:56:17.355Z,4.15
2017-11-28T03:02:42.525Z,4.70
2017-11-28T03:05:53.023Z,3.53
2017-11-28T03:09:20.119Z,3.72
2017-11-28T03:12:36.148Z,4.62
2017-11-28T03:15:47.004Z,3.60
2017-11-28T03:19:09.145Z,4.25
2017-11-28T03:25:53.872Z,4.00
2017-11-28T03:32:34.336Z,4.15
2017-11-28T03:35:44.746Z,4.07
2017-11-28T03:38:54.348Z,4.32
2017-11-28T03:42:04.308Z,4.22
2017-11-28T03:45:15.264Z,4.32
2017-11-28T03:48:24.541Z,3.83
2017-11-28T03:51:35.581Z,4.07
2017-11-28T03:54:45.694Z,5.00
2017-11-28T03:57:55.548Z,4.28
2017-11-28T04:01:05.698Z,4.20
2017-11-28T04:04:16.408Z,4.32
2017-11-28T04:07:26.154Z,4.18
2017-11-28T04:10:36.005Z,4.10
2017-11-28T04:13:45.500Z,3.90
2017-11-28T04:16:55.481Z,4.15
2017-11-28T04:20:05.523Z,3.72
2017-11-28T04:23:15.568Z,4.40
2017-11-28T04:26:25.290Z,4.30
2017-11-28T04:29:35.621Z,4.15
2017-11-28T04:32:45.834Z,4.03
2017-11-28T04:35:55.628Z,4.05
2017-11-28T04:39:05.119Z,4.37
2017-11-28T04:42:14.897Z,4.30
2017-11-28T04:45:25.706Z,4.00
2017-11-28T04:48:35.820Z,3.87
2017-11-28T04:51:45.528Z,4.32
2017-11-28T04:54:55.494Z,4.15
2017-11-28T04:58:05.427Z,4.15
2017-11-28T05:01:15.592Z,4.07
2017-11-28T05:04:26.681Z,3.87
2017-11-28T05:07:37.612Z,4.50
2017-11-28T05:10:47.753Z,4.28
2017-11-28T05:13:57.990Z,4.28
2017-11-28T05:17:08.271Z,4.57
2017-11-28T05:20:18.013Z,4.28
2017-11-28T05:23:27.367Z,4.05
2017-11-28T05:26:38.006Z,4.03
2017-11-28T05:29:47.720Z,4.00
2017-11-28T05:32:57.785Z,4.03
2017-11-28T05:36:08.066Z,4.32
2017-11-28T05:39:18.852Z,4.15
2017-11-28T05:42:28.553Z,4.10
2017-11-28T05:45:38.511Z,4.45
2017-11-28T05:48:48.015Z,4.25
2017-11-28T05:51:58.383Z,4.18
2017-11-28T05:55:08.789Z,4.35
2017-11-28T05:58:18.740Z,4.15
2017-11-28T06:01:30.174Z,4.47
2017-11-28T06:04:39.919Z,4.18
2017-11-28T06:07:50.803Z,4.65
2017-11-28T06:11:00.501Z,4.15
2017-11-28T06:14:11.039Z,4.62
2017-11-28T06:17:21.506Z,4.30
2017-11-28T06:20:31.262Z,4.28
2017-11-28T06:23:40.837Z,4.03
2017-11-28T06:26:51.411Z,4.50
2017-11-28T06:30:00.972Z,3.95
2017-11-28T06:33:10.559Z,4.07
2017-11-28T06:36:21.306Z,5.10
2017-11-28T06:39:35.369Z,4.53
2017-11-28T06:42:45.404Z,4.62
2017-11-28T06:45:55.575Z,4.18
2017-11-28T06:49:05.227Z,4.18
2017-11-28T06:52:16.391Z,4.30
2017-11-28T06:55:26.830Z,4.55
2017-11-28T06:58:37.235Z,4.68
2017-11-28T07:01:46.662Z,4.12
2017-11-28T07:04:56.585Z,4.18
2017-11-28T07:08:06.295Z,4.15
2017-11-28T07:11:16.378Z,4.85
2017-11-28T07:14:26.157Z,4.12
2017-11-28T07:17:37.133Z,4.07
2017-11-28T07:20:46.978Z,4.50
2017-11-28T07:23:57.136Z,4.90
2017-11-28T07:27:07.580Z,4.35
2017-11-28T07:30:17.889Z,4.55
2017-11-28T07:33:28.225Z,4.60
2017-11-28T07:36:40.689Z,4.80
2017-11-28T07:39:51.027Z,4.75
2017-11-28T07:43:02.005Z,4.32
2017-11-28T07:46:11.945Z,4.15
2017-11-28T07:49:21.749Z,4.40
2017-11-28T07:52:31.151Z,4.47
2017-11-28T07:55:40.992Z,4.60
2017-11-28T07:58:51.299Z,4.37
2017-11-28T08:02:01.307Z,3.92
2017-11-28T08:05:11.062Z,4.60
2017-11-28T08:08:24.498Z,4.30
2017-11-28T08:11:35.287Z,4.47
2017-11-28T08:14:45.844Z,4.37
2017-11-28T08:17:55.865Z,4.53
2017-11-28T08:21:05.690Z,8.27
2017-11-28T08:24:15.642Z,4.90
2017-11-28T08:27:25.664Z,4.70
2017-11-28T08:30:35.980Z,4.35
2017-11-28T08:33:45.929Z,4.72
2017-11-28T08:36:55.203Z,4.55
2017-11-28T08:40:04.755Z,5.90
2017-11-28T08:43:15.139Z,4.15
2017-11-28T08:46:25.307Z,3.83
2017-11-28T08:49:35.553Z,4.25
2017-11-28T08:52:45.394Z,4.65
2017-11-28T08:55:55.132Z,4.30
2017-11-28T08:59:05.067Z,4.20
2017-11-28T09:02:14.488Z,4.28
2017-11-28T09:05:23.810Z,4.57
2017-11-28T09:08:33.802Z,4.75
2017-11-28T09:11:44.008Z,4.80
2017-11-28T09:14:54.233Z,5.07
2017-11-28T09:18:04.317Z,4.85
2017-11-28T09:21:13.769Z,4.95
2017-11-28T09:24:23.384Z,4.65
2017-11-28T09:27:32.908Z,4.32
2017-11-28T09:30:42.813Z,4.78
2017-11-28T09:33:52.621Z,5.10
2017-11-28T09:37:02.465Z,4.40
2017-11-28T09:40:12.437Z,4.28
2017-11-28T09:43:22.156Z,4.30
2017-11-28T09:46:31.982Z,4.22
2017-11-28T09:49:41.905Z,4.75
2017-11-28T09:52:51.499Z,4.37
2017-11-28T09:56:01.585Z,4.78
2017-11-28T09:59:11.067Z,4.82
2017-11-28T10:02:20.824Z,4.47
2017-11-28T10:05:31.344Z,4.82
2017-11-28T10:08:41.287Z,5.37
2017-11-28T10:11:51.125Z,21.20
2017-11-28T10:15:01.030Z,5.65
2017-11-28T10:18:11.232Z,4.53
2017-11-28T10:21:21.466Z,6.30
2017-11-28T10:24:32.209Z,7.37
2017-11-28T10:27:42.631Z,5.35
2017-11-28T10:30:53.017Z,16.08
2017-11-28T10:34:02.981Z,4.80
2017-11-28T10:37:12.648Z,4.87
2017-11-28T10:40:22.288Z,10.90
2017-11-28T10:43:33.234Z,4.78
2017-11-28T10:46:43.048Z,5.65
2017-11-28T10:49:54.264Z,4.45
2017-11-28T10:53:04.934Z,5.43
2017-11-28T10:56:15.841Z,4.70
2017-11-28T10:59:26.203Z,5.12
2017-11-28T11:02:36.047Z,4.62
2017-11-28T11:05:46.194Z,4.87
2017-11-28T11:08:56.387Z,5.12
2017-11-28T11:12:06.907Z,4.75
2017-11-28T11:15:17.295Z,5.07
2017-11-28T11:18:27.248Z,5.80
2017-11-28T11:21:37.590Z,5.75
2017-11-28T11:24:47.170Z,5.25
2017-11-28T11:27:57.515Z,5.40
2017-11-28T11:31:07.480Z,5.37
2017-11-28T11:34:17.993Z,4.45
2017-11-28T11:37:27.928Z,4.72
2017-11-28T11:40:38.902Z,8.50
2017-11-28T11:43:48.991Z,6.15
2017-11-28T11:46:59.172Z,5.03
2017-11-28T11:50:10.149Z,7.37
2017-11-28T11:53:19.908Z,4.72
2017-11-28T11:56:29.674Z,4.72
2017-11-28T11:59:39.251Z,4.30
2017-11-28T12:02:49.737Z,4.75
2017-11-28T12:05:59.411Z,4.53
2017-11-28T12:09:09.691Z,4.30
2017-11-28T12:12:19.449Z,4.75
2017-11-28T12:15:28.988Z,4.97
2017-11-28T12:18:38.934Z,4.50
2017-11-28T12:21:49.733Z,4.57
2017-11-28T12:25:00.043Z,5.22
2017-11-28T12:28:10.078Z,5.15
2017-11-28T12:31:20.715Z,4.47
2017-11-28T12:34:30.052Z,4.80
2017-11-28T12:37:39.907Z,5.72
2017-11-28T12:40:50.308Z,4.45
2017-11-28T12:44:00.301Z,4.15
2017-11-28T12:47:09.937Z,5.20
2017-11-28T12:50:19.575Z,4.78
2017-11-28T12:53:29.215Z,5.00
2017-11-28T12:56:38.923Z,4.70
2017-11-28T12:59:48.713Z,5.00
2017-11-28T13:02:58.397Z,4.85
2017-11-28T13:06:08.253Z,4.90
2017-11-28T13:09:18.033Z,5.00
2017-11-28T13:12:28.078Z,4.68
2017-11-28T13:15:38.477Z,4.80
2017-11-28T13:18:49.569Z,4.22
2017-11-28T13:22:00.471Z,4.05
2017-11-28T13:25:10.833Z,4.55
2017-11-28T13:28:20.850Z,4.85
2017-11-28T13:31:30.750Z,4.97
2017-11-28T13:34:40.410Z,4.75
2017-11-28T13:37:50.142Z,4.53
2017-11-28T13:40:59.660Z,4.60
2017-11-28T13:44:10.199Z,4.60
2017-11-28T13:47:20.282Z,7.05
2017-11-28T13:50:30.132Z,5.03
2017-11-28T13:53:39.790Z,5.03
2017-11-28T13:56:50.623Z,5.00
2017-11-28T14:00:01.519Z,4.90
2017-11-28T14:03:10.926Z,4.80
2017-11-28T14:06:20.517Z,4.28
2017-11-28T14:09:30.221Z,4.10
2017-11-28T14:12:40.515Z,4.50
2017-11-28T14:15:51.060Z,5.45
2017-11-28T14:19:01.680Z,4.75
2017-11-28T14:26:13.679Z,4.80
2017-11-28T14:29:24.634Z,5.07
2017-11-28T14:32:42.593Z,5.47
2017-11-28T14:35:53.149Z,4.10
2017-11-28T14:39:04.518Z,5.10
2017-11-28T14:42:19.632Z,4.43
2017-11-28T14:49:07.439Z,5.00
2017-11-28T14:52:26.983Z,4.62
2017-11-28T14:59:30.232Z,5.05
2017-11-28T15:02:45.879Z,5.75
2017-11-28T15:06:01.322Z,5.53
2017-11-28T15:12:53.306Z,4.82
2017-11-28T15:16:09.165Z,6.75
2017-11-28T15:19:19.213Z,5.05
2017-11-28T15:22:32.994Z,5.75
2017-11-28T15:29:28.672Z,4.87
2017-11-28T15:32:38.199Z,5.50
2017-11-28T15:35:48.903Z,8.10
2017-11-28T15:38:59.301Z,5.75
2017-11-28T15:42:09.086Z,5.57
2017-11-28T15:45:18.762Z,5.75
2017-11-28T15:48:28.251Z,5.10
2017-11-28T15:51:38.727Z,6.10
2017-11-28T15:54:48.780Z,5.20
2017-11-28T15:57:58.403Z,5.37
2017-11-28T16:01:08.198Z,6.35
2017-11-28T16:04:17.894Z,5.68
2017-11-28T16:07:27.993Z,5.87
2017-11-28T16:10:38.121Z,5.87
2017-11-28T16:13:48.364Z,6.50
2017-11-28T16:16:58.499Z,5.60
2017-11-28T16:20:08.404Z,6.07
2017-11-28T16:23:19.367Z,5.45
2017-11-28T16:26:29.839Z,5.50
2017-11-28T16:29:40.190Z,8.25
2017-11-28T16:32:50.881Z,7.25
2017-11-28T16:36:01.144Z,4.30
2017-11-28T16:39:11.033Z,6.70
2017-11-28T16:42:21.206Z,8.35
2017-11-28T16:45:31.148Z,10.10
2017-11-28T16:48:41.086Z,6.70
2017-11-28T16:51:50.685Z,6.20
2017-11-28T16:55:01.182Z,8.02
2017-11-28T16:58:11.066Z,6.45
2017-11-28T17:01:20.783Z,9.10
2017-11-28T17:04:30.701Z,8.15
2017-11-28T17:07:40.109Z,6.45
2017-11-28T17:10:49.634Z,5.65
2017-11-28T17:13:59.732Z,5.82
2017-11-28T17:17:09.233Z,6.10
2017-11-28T17:20:19.107Z,5.65
2017-11-28T17:23:29.249Z,5.68
2017-11-28T17:26:39.682Z,4.55
2017-11-28T17:29:49.680Z,5.50
2017-11-28T17:32:59.925Z,7.37
2017-11-28T17:36:10.740Z,5.60
2017-11-28T17:39:20.317Z,6.28
2017-11-28T17:42:30.378Z,6.10
2017-11-28T17:45:39.922Z,6.53
2017-11-28T17:48:51.516Z,5.90
2017-11-28T17:52:02.500Z,6.10
2017-11-28T17:55:12.456Z,7.65
2017-11-28T17:58:22.010Z,5.53
2017-11-28T18:01:31.768Z,7.25
2017-11-28T18:04:42.679Z,7.62
2017-11-28T18:07:52.821Z,6.25
2017-11-28T18:11:02.469Z,7.90
2017-11-28T18:14:12.882Z,7.72
2017-11-28T18:17:22.903Z,7.40
2017-11-28T18:20:33.504Z,6.68
2017-11-28T18:23:43.522Z,6.80
2017-11-28T18:26:53.759Z,10.25
2017-11-28T18:30:03.484Z,6.47
2017-11-28T18:33:14.124Z,7.05
2017-11-28T18:36:24.208Z,6.55
2017-11-28T18:39:34.163Z,8.10
2017-11-28T18:42:44.164Z,8.30
2017-11-28T18:45:53.625Z,7.95
2017-11-28T18:49:04.479Z,7.37
2017-11-28T18:52:13.894Z,8.35
2017-11-28T18:55:23.756Z,8.05
2017-11-28T18:58:33.443Z,6.37
2017-11-28T19:01:43.636Z,8.85
2017-11-28T19:04:53.842Z,7.50
2017-11-28T19:08:03.394Z,8.23
2017-11-28T19:11:13.128Z,8.02
2017-11-28T19:14:22.972Z,8.18
2017-11-28T19:17:33.091Z,8.27
2017-11-28T19:20:43.170Z,10.38
2017-11-28T19:23:53.377Z,10.52
2017-11-28T19:27:03.485Z,8.20
2017-11-28T19:30:12.861Z,8.95
2017-11-28T19:33:22.631Z,8.13
2017-11-28T19:36:32.132Z,11.05
2017-11-28T19:39:42.020Z,9.80
2017-11-28T19:42:52.028Z,10.02
2017-11-28T19:46:02.557Z,11.95
2017-11-28T19:49:12.039Z,10.75
2017-11-28T19:52:22.641Z,8.65
2017-11-28T19:55:32.235Z,9.93
2017-11-28T19:58:42.284Z,12.55
2017-11-28T20:01:52.300Z,12.52
2017-11-28T20:05:02.505Z,15.65
2017-11-28T20:08:11.955Z,13.57
2017-11-28T20:11:21.690Z,12.10
2017-11-28T20:14:31.866Z,13.60
2017-11-28T20:17:42.160Z,9.23
2017-11-28T20:20:51.498Z,10.88
2017-11-28T20:24:01.111Z,8.40
2017-11-28T20:27:10.979Z,9.13
2017-11-28T20:30:20.790Z,7.80
2017-11-28T20:33:30.548Z,8.18
2017-11-28T20:36:40.104Z,6.95
2017-11-28T20:39:50.361Z,7.20
2017-11-28T20:43:00.112Z,7.22
2017-11-28T20:46:09.887Z,8.20
2017-11-28T20:49:25.201Z,7.18
2017-11-28T20:52:34.865Z,8.85
2017-11-28T20:55:44.677Z,10.77
2017-11-28T20:58:54.444Z,9.50
2017-11-28T21:02:04.320Z,8.65
2017-11-28T21:05:14.136Z,8.75
2017-11-28T21:08:24.567Z,8.80
2017-11-28T21:11:34.629Z,8.38
2017-11-28T21:14:44.166Z,8.75
2017-11-28T21:17:54.126Z,8.68
2017-11-28T21:21:03.645Z,6.07
2017-11-28T21:24:13.762Z,7.68
2017-11-28T21:27:24.270Z,7.57
2017-11-28T21:30:34.640Z,8.27
2017-11-28T21:33:44.384Z,5.65
2017-11-28T21:36:54.114Z,9.88
2017-11-28T21:40:04.632Z,6.20
2017-11-28T21:43:15.053Z,8.32
2017-11-28T21:46:25.540Z,6.85
2017-11-28T21:49:35.585Z,7.40
2017-11-28T21:52:45.997Z,7.10
2017-11-28T21:55:55.568Z,6.87
2017-11-28T21:59:05.618Z,7.12
2017-11-28T22:02:15.513Z,9.07
2017-11-28T22:05:26.327Z,6.97
2017-11-28T22:08:35.937Z,6.35
2017-11-28T22:11:46.197Z,6.75
2017-11-28T22:14:56.018Z,6.40
2017-11-28T22:18:05.606Z,5.87
2017-11-28T22:21:15.257Z,6.72
2017-11-28T22:24:25.431Z,6.37
2017-11-28T22:27:36.475Z,5.93
2017-11-28T22:30:46.072Z,7.30
2017-11-28T22:33:56.121Z,6.00
2017-11-28T22:37:06.998Z,6.55
2017-11-28T22:40:17.168Z,6.75
2017-11-28T22:43:27.401Z,7.90
2017-11-28T22:46:36.883Z,7.00
2017-11-28T22:49:47.656Z,6.37
2017-11-28T22:52:57.347Z,7.00
2017-11-28T22:56:06.861Z,8.30
2017-11-28T22:59:17.318Z,8.18
2017-11-28T23:02:27.201Z,5.65
2017-11-28T23:05:37.306Z,6.45
2017-11-28T23:08:47.734Z,6.75
2017-11-28T23:11:57.599Z,8.18
2017-11-28T23:15:07.505Z,6.10
2017-11-28T23:18:17.256Z,6.40
2017-11-28T23:21:27.756Z,7.97
2017-11-28T23:24:38.507Z,6.95
2017-11-28T23:27:48.612Z,7.43
2017-11-28T23:30:57.966Z,5.90
2017-11-28T23:34:07.694Z,6.00
2017-11-28T23:37:18.276Z,7.85
2017-11-28T23:40:28.087Z,6.87
2017-11-28T23:43:38.556Z,7.97
2017-11-28T23:46:47.963Z,7.43
2017-11-28T23:49:57.654Z,7.55
2017-11-28T23:53:07.047Z,7.25
2017-11-28T23:56:17.944Z,6.53
2017-11-28T23:59:27.989Z,7.03
